Time;durP1;ratioP1;P1;durP2;ratioP2;P2;SDS_P1;SDS_P2;PMS_P1;PMS_P2;Temp;Humidity;BMP_temperature;BMP_pressure;BME280_temperature;BME280_humidity;BME280_pressure;Samples;Min_cycle;Max_cycle;Signal;HPM_P1;HPM_P2
2022/08/09 00:00:44;;;;;;;6.97;5.75;;;;;;;;;;4991989;28;20485;-78
2022/08/09 00:03:09;;;;;;;7.05;6.35;;;;;;;;;;4991656;28;20033;-79
2022/08/09 00:05:35;;;;;;;7.55;5.90;;;;;;;;;;4992136;28;20073;-78
2022/08/09 00:08:00;;;;;;;5.25;4.63;;;;;;;;;;4993010;28;20030;-78
2022/08/09 00:10:26;;;;;;;5.57;4.40;;;;;;;;;;5003105;28;20121;-79
2022/08/09 00:12:51;;;;;;;4.70;4.28;;;;;;;;;;4995329;28;20019;-78
2022/08/09 00:15:17;;;;;;;6.18;5.00;;;;;;;;;;4993094;28;20128;-78
2022/08/09 00:17:42;;;;;;;6.25;5.07;;;;;;;;;;4998427;28;20096;-78
2022/08/09 00:20:08;;;;;;;5.35;4.70;;;;;;;;;;4999781;28;20050;-78
2022/08/09 00:22:34;;;;;;;5.82;4.68;;;;;;;;;;4993919;28;20512;-78
2022/08/09 00:24:59;;;;;;;4.95;4.32;;;;;;;;;;4976638;28;20474;-79
2022/08/09 00:27:25;;;;;;;4.22;3.50;;;;;;;;;;5005724;28;20022;-78
2022/08/09 00:29:51;;;;;;;6.13;4.85;;;;;;;;;;4994951;28;20105;-79
2022/08/09 00:32:16;;;;;;;4.82;4.32;;;;;;;;;;4999636;28;20036;-79
2022/08/09 00:34:42;;;;;;;5.80;4.50;;;;;;;;;;4995262;28;20514;-79
2022/08/09 00:37:07;;;;;;;6.75;4.57;;;;;;;;;;4998095;28;20046;-78
2022/08/09 00:39:33;;;;;;;5.10;4.60;;;;;;;;;;4994002;28;20096;-78
2022/08/09 00:41:58;;;;;;;6.93;5.03;;;;;;;;;;4999557;28;20029;-78
2022/08/09 00:44:24;;;;;;;4.97;3.95;;;;;;;;;;4996024;28;20497;-78
2022/08/09 00:46:49;;;;;;;5.88;4.80;;;;;;;;;;4998341;28;20061;-79
2022/08/09 00:49:15;;;;;;;4.90;4.40;;;;;;;;;;4988504;28;20058;-78
2022/08/09 00:51:40;;;;;;;6.88;5.03;;;;;;;;;;4990838;28;20035;-78
2022/08/09 00:54:05;;;;;;;5.15;4.60;;;;;;;;;;4991319;28;20031;-78
2022/08/09 00:56:31;;;;;;;6.93;5.18;;;;;;;;;;4986807;28;20394;-79
2022/08/09 00:58:57;;;;;;;6.95;5.53;;;;;;;;;;4996904;28;20504;-78
2022/08/09 01:01:33;;;;;;;5.40;4.90;;;;;;;;;;4990717;28;20030;-78
2022/08/09 01:04:36;;;;;;;6.75;5.20;;;;;;;;;;4991607;28;20052;-79
2022/08/09 01:07:22;;;;;;;8.73;5.35;;;;;;;;;;4990893;28;20059;-79
2022/08/09 01:09:52;;;;;;;6.13;4.88;;;;;;;;;;4978546;28;20039;-78
2022/08/09 01:12:18;;;;;;;5.57;4.82;;;;;;;;;;4990652;28;20030;-78
2022/08/09 01:14:54;;;;;;;6.47;5.82;;;;;;;;;;4991390;28;20080;-79
2022/08/09 01:17:33;;;;;;;6.20;5.53;;;;;;;;;;4990758;28;20045;-79
2022/08/09 01:20:01;;;;;;;6.65;5.38;;;;;;;;;;4973872;28;20436;-79
2022/08/09 01:22:33;;;;;;;6.82;5.40;;;;;;;;;;4990995;28;20041;-78
2022/08/09 01:25:04;;;;;;;5.38;4.88;;;;;;;;;;5005690;28;20141;-79
2022/08/09 01:27:30;;;;;;;6.00;5.00;;;;;;;;;;4990727;28;20037;-79
2022/08/09 01:29:56;;;;;;;5.97;5.38;;;;;;;;;;4973595;28;20015;-79
2022/08/09 01:32:23;;;;;;;6.95;5.22;;;;;;;;;;4992798;28;20034;-79
2022/08/09 01:34:49;;;;;;;7.30;6.05;;;;;;;;;;4993417;28;20033;-79
2022/08/09 01:37:15;;;;;;;8.07;5.68;;;;;;;;;;4993146;28;20038;-78
2022/08/09 01:39:40;;;;;;;7.43;5.97;;;;;;;;;;5007985;28;20018;-79
2022/08/09 01:42:06;;;;;;;5.63;4.93;;;;;;;;;;4985213;28;20081;-79
2022/08/09 01:44:32;;;;;;;9.32;6.72;;;;;;;;;;4988124;28;20030;-78
2022/08/09 01:46:58;;;;;;;7.28;6.00;;;;;;;;;;4994716;28;20061;-78
2022/08/09 01:49:23;;;;;;;9.27;6.97;;;;;;;;;;4995491;28;20481;-78
2022/08/09 01:51:53;;;;;;;6.10;5.47;;;;;;;;;;4994451;28;20043;-79
2022/08/09 01:54:19;;;;;;;6.75;4.28;;;;;;;;;;4994194;28;20045;-79
2022/08/09 01:56:45;;;;;;;17.02;15.07;;;;;;;;;;4990630;28;20035;-79
2022/08/09 01:59:12;;;;;;;7.32;6.13;;;;;;;;;;4991879;28;20089;-79
2022/08/09 02:01:38;;;;;;;6.95;5.47;;;;;;;;;;4994185;28;20038;-79
2022/08/09 02:04:03;;;;;;;8.13;7.05;;;;;;;;;;4977380;28;20042;-79
2022/08/09 02:09:13;;;;;;;7.03;6.05;;;;;;;;;;4992419;28;20042;-79
2022/08/09 02:11:38;;;;;;;8.63;7.32;;;;;;;;;;4995163;28;20029;-79
2022/08/09 02:14:04;;;;;;;8.57;7.68;;;;;;;;;;4993794;28;20026;-79
2022/08/09 02:16:32;;;;;;;8.40;7.35;;;;;;;;;;4994103;28;20041;-79
2022/08/09 02:18:58;;;;;;;7.60;6.15;;;;;;;;;;4997418;28;20049;-78
2022/08/09 02:21:23;;;;;;;7.95;7.15;;;;;;;;;;4998515;28;20046;-79
2022/08/09 02:23:51;;;;;;;8.07;7.28;;;;;;;;;;4993464;28;20478;-79
2022/08/09 02:26:16;;;;;;;7.90;7.05;;;;;;;;;;4993503;28;20435;-79
2022/08/09 02:28:43;;;;;;;8.63;6.75;;;;;;;;;;4993574;28;20057;-78
2022/08/09 02:31:32;;;;;;;6.47;5.22;;;;;;;;;;4994484;28;20057;-78
2022/08/09 02:33:59;;;;;;;7.90;6.45;;;;;;;;;;4984728;28;20038;-78
2022/08/09 02:36:28;;;;;;;9.35;7.68;;;;;;;;;;4994260;28;20034;-77
2022/08/09 02:38:54;;;;;;;9.13;6.97;;;;;;;;;;4994212;28;20042;-77
2022/08/09 02:41:23;;;;;;;15.20;8.82;;;;;;;;;;4995921;28;20027;-77
2022/08/09 02:43:49;;;;;;;9.82;8.82;;;;;;;;;;4994689;28;20096;-78
2022/08/09 02:46:14;;;;;;;10.35;9.27;;;;;;;;;;5003925;28;20381;-79
2022/08/09 02:48:40;;;;;;;11.13;8.82;;;;;;;;;;4994269;28;20172;-78
2022/08/09 02:51:05;;;;;;;11.15;8.50;;;;;;;;;;4994024;28;20025;-79
2022/08/09 02:53:36;;;;;;;9.77;8.38;;;;;;;;;;4993486;28;20042;-78
2022/08/09 02:56:01;;;;;;;8.75;7.45;;;;;;;;;;4989838;28;20039;-79
2022/08/09 02:58:28;;;;;;;9.95;8.95;;;;;;;;;;4985503;28;20046;-78
2022/08/09 03:00:53;;;;;;;10.82;9.23;;;;;;;;;;4979882;28;20113;-79
2022/08/09 03:03:20;;;;;;;10.40;9.20;;;;;;;;;;4994036;28;20129;-79
2022/08/09 03:05:46;;;;;;;10.43;9.32;;;;;;;;;;4994045;28;20417;-79
2022/08/09 03:08:11;;;;;;;8.52;7.63;;;;;;;;;;4973668;28;20039;-77
2022/08/09 03:10:37;;;;;;;8.93;7.43;;;;;;;;;;4991681;28;20030;-77
2022/08/09 03:13:02;;;;;;;7.22;6.43;;;;;;;;;;4992686;28;20038;-78
2022/08/09 03:15:28;;;;;;;7.57;6.88;;;;;;;;;;4993051;28;20030;-78
2022/08/09 03:17:53;;;;;;;9.63;8.63;;;;;;;;;;4993757;28;20042;-79
2022/08/09 03:20:19;;;;;;;8.85;7.45;;;;;;;;;;4975200;28;20055;-80
2022/08/09 03:22:46;;;;;;;10.73;9.63;;;;;;;;;;4978680;28;20688;-78
2022/08/09 03:25:12;;;;;;;10.57;9.48;;;;;;;;;;4981640;28;20125;-78
2022/08/09 03:27:37;;;;;;;11.23;9.98;;;;;;;;;;4995958;28;20468;-79
2022/08/09 03:30:03;;;;;;;10.77;9.77;;;;;;;;;;4999588;28;20385;-79
2022/08/09 03:32:29;;;;;;;12.35;10.45;;;;;;;;;;5005133;28;20038;-78
2022/08/09 03:34:55;;;;;;;12.77;10.13;;;;;;;;;;4996113;28;20026;-79
2022/08/09 03:37:20;;;;;;;12.73;10.60;;;;;;;;;;4995600;28;20493;-78
2022/08/09 03:39:47;;;;;;;12.32;10.57;;;;;;;;;;4997931;28;20026;-80
2022/08/09 03:42:13;;;;;;;10.45;9.20;;;;;;;;;;4995383;28;20038;-80
2022/08/09 03:44:38;;;;;;;12.57;10.60;;;;;;;;;;4997465;28;20022;-79
2022/08/09 03:47:04;;;;;;;11.38;8.93;;;;;;;;;;4996917;28;20033;-78
2022/08/09 03:49:29;;;;;;;9.75;8.77;;;;;;;;;;4996789;28;20027;-78
2022/08/09 03:51:56;;;;;;;11.82;9.18;;;;;;;;;;4996456;28;20030;-78
2022/08/09 03:54:23;;;;;;;11.52;8.45;;;;;;;;;;4983674;28;20041;-80
2022/08/09 03:56:48;;;;;;;9.63;8.25;;;;;;;;;;4988942;28;20043;-80
2022/08/09 03:59:14;;;;;;;9.82;6.35;;;;;;;;;;5004435;28;20024;-79
2022/08/09 04:01:40;;;;;;;8.82;7.93;;;;;;;;;;4992486;28;20405;-79
2022/08/09 04:04:05;;;;;;;6.38;5.10;;;;;;;;;;4992745;28;20077;-78
2022/08/09 04:06:30;;;;;;;8.45;7.47;;;;;;;;;;4993460;28;20485;-79
2022/08/09 04:08:56;;;;;;;8.63;7.72;;;;;;;;;;4976917;28;20556;-79
2022/08/09 04:11:21;;;;;;;5.60;5.10;;;;;;;;;;4994145;28;20050;-78
2022/08/09 04:13:47;;;;;;;7.38;5.40;;;;;;;;;;4997877;28;20105;-79
2022/08/09 04:16:12;;;;;;;9.60;8.25;;;;;;;;;;4996383;28;20129;-79
2022/08/09 04:18:39;;;;;;;8.07;7.13;;;;;;;;;;4994955;28;20026;-78
2022/08/09 04:21:05;;;;;;;9.75;7.03;;;;;;;;;;4996687;28;20058;-78
2022/08/09 04:23:31;;;;;;;9.02;6.10;;;;;;;;;;5001696;28;20405;-78
2022/08/09 04:25:56;;;;;;;6.10;5.50;;;;;;;;;;4995774;28;20441;-79
2022/08/09 04:28:22;;;;;;;9.82;7.32;;;;;;;;;;5002120;28;20077;-79
2022/08/09 04:30:47;;;;;;;8.38;7.25;;;;;;;;;;4992793;28;20033;-78
2022/08/09 04:33:13;;;;;;;9.15;6.88;;;;;;;;;;4992766;28;20026;-78
2022/08/09 04:35:41;;;;;;;7.50;6.72;;;;;;;;;;4992862;28;20042;-78
2022/08/09 04:38:06;;;;;;;7.90;6.75;;;;;;;;;;4997031;28;20424;-78
2022/08/09 04:40:47;;;;;;;5.82;4.85;;;;;;;;;;5005550;28;20033;-77
2022/08/09 04:43:13;;;;;;;10.95;6.95;;;;;;;;;;4991552;28;20031;-77
2022/08/09 04:45:40;;;;;;;7.57;6.78;;;;;;;;;;4992817;28;20505;-78
2022/08/09 04:48:05;;;;;;;8.63;7.35;;;;;;;;;;4991995;28;20030;-77
2022/08/09 04:50:31;;;;;;;7.60;6.75;;;;;;;;;;5001802;28;20026;-77
2022/08/09 04:52:56;;;;;;;9.30;7.07;;;;;;;;;;4999218;28;20041;-77
2022/08/09 04:55:21;;;;;;;8.02;7.22;;;;;;;;;;4994744;28;20096;-78
2022/08/09 04:57:47;;;;;;;8.43;7.60;;;;;;;;;;4992598;28;20481;-77
2022/08/09 05:00:12;;;;;;;8.90;8.00;;;;;;;;;;4988817;28;20031;-78
2022/08/09 05:02:38;;;;;;;8.77;7.88;;;;;;;;;;4989564;28;20046;-80
2022/08/09 05:05:04;;;;;;;8.60;7.50;;;;;;;;;;4992098;28;20030;-78
2022/08/09 05:07:29;;;;;;;9.05;7.80;;;;;;;;;;4997087;28;20041;-78
2022/08/09 05:09:55;;;;;;;8.70;7.50;;;;;;;;;;4996932;28;20053;-77
2022/08/09 05:12:20;;;;;;;9.02;6.28;;;;;;;;;;4999337;28;20569;-79
2022/08/09 05:14:46;;;;;;;8.57;6.88;;;;;;;;;;5003242;28;20402;-79
2022/08/09 05:17:11;;;;;;;10.63;5.13;;;;;;;;;;4996086;28;20164;-78
2022/08/09 05:19:36;;;;;;;7.47;5.60;;;;;;;;;;4996020;28;20141;-80
2022/08/09 05:22:03;;;;;;;8.32;5.38;;;;;;;;;;4995575;28;20029;-78
2022/08/09 05:24:28;;;;;;;10.88;7.13;;;;;;;;;;4994873;28;20041;-78
2022/08/09 05:26:54;;;;;;;7.47;5.47;;;;;;;;;;4995983;28;20490;-79
2022/08/09 05:29:19;;;;;;;8.00;6.30;;;;;;;;;;4996052;28;20026;-78
2022/08/09 05:31:45;;;;;;;9.75;6.10;;;;;;;;;;4995872;28;20130;-78
2022/08/09 05:34:11;;;;;;;8.10;5.80;;;;;;;;;;5005560;28;20057;-79
2022/08/09 05:36:37;;;;;;;9.52;6.30;;;;;;;;;;4996540;28;20506;-78
2022/08/09 05:39:02;;;;;;;8.90;5.70;;;;;;;;;;4995897;28;20096;-79
2022/08/09 05:41:27;;;;;;;10.98;6.35;;;;;;;;;;4996186;28;20069;-79
2022/08/09 05:43:53;;;;;;;8.63;6.00;;;;;;;;;;4996549;28;20490;-78
2022/08/09 05:46:18;;;;;;;7.68;4.90;;;;;;;;;;4994944;28;20034;-78
2022/08/09 05:48:44;;;;;;;7.75;5.28;;;;;;;;;;4995674;28;20026;-77
2022/08/09 05:51:09;;;;;;;9.13;5.93;;;;;;;;;;4996361;28;20046;-79
2022/08/09 05:53:35;;;;;;;7.20;5.32;;;;;;;;;;4996531;28;20026;-79
2022/08/09 05:56:01;;;;;;;12.40;5.80;;;;;;;;;;4996519;28;20038;-80
2022/08/09 05:58:26;;;;;;;8.80;5.40;;;;;;;;;;4996176;28;20084;-80
2022/08/09 06:00:52;;;;;;;6.78;5.80;;;;;;;;;;4996642;28;20034;-78
2022/08/09 06:03:17;;;;;;;7.72;5.13;;;;;;;;;;4995998;28;20544;-77
2022/08/09 06:05:43;;;;;;;6.82;5.53;;;;;;;;;;4996510;28;20034;-79
2022/08/09 06:08:08;;;;;;;7.03;4.75;;;;;;;;;;4993823;28;20470;-78
2022/08/09 06:10:37;;;;;;;7.82;5.70;;;;;;;;;;4994778;28;20030;-79
2022/08/09 06:13:05;;;;;;;6.65;5.30;;;;;;;;;;4995749;28;20019;-81
2022/08/09 06:15:32;;;;;;;8.57;5.22;;;;;;;;;;4995115;28;20053;-83
2022/08/09 06:17:58;;;;;;;5.68;4.18;;;;;;;;;;4994340;28;20100;-79
2022/08/09 06:20:23;;;;;;;4.57;4.00;;;;;;;;;;4994106;28;20046;-79
2022/08/09 06:22:48;;;;;;;6.10;3.70;;;;;;;;;;4978449;28;20030;-80
2022/08/09 06:25:14;;;;;;;5.45;4.28;;;;;;;;;;4994117;28;20034;-79
2022/08/09 06:27:40;;;;;;;7.95;4.80;;;;;;;;;;4994340;28;20022;-80
2022/08/09 06:30:06;;;;;;;8.20;4.53;;;;;;;;;;4961203;28;20030;-79
2022/08/09 06:32:32;;;;;;;5.70;4.03;;;;;;;;;;4995556;28;20026;-79
2022/08/09 06:34:58;;;;;;;5.75;4.13;;;;;;;;;;4978238;28;20030;-80
2022/08/09 06:37:23;;;;;;;6.93;4.40;;;;;;;;;;4994494;28;20384;-80
2022/08/09 06:39:49;;;;;;;6.65;5.00;;;;;;;;;;4995924;28;20026;-82
2022/08/09 06:42:15;;;;;;;7.57;4.10;;;;;;;;;;4995745;28;20061;-79
2022/08/09 06:44:41;;;;;;;4.90;3.58;;;;;;;;;;4997159;28;20038;-79
2022/08/09 06:47:06;;;;;;;5.03;3.90;;;;;;;;;;4995308;28;20401;-78
2022/08/09 06:49:32;;;;;;;4.70;3.53;;;;;;;;;;4997266;28;20034;-78
2022/08/09 06:51:57;;;;;;;4.97;3.90;;;;;;;;;;4994740;28;20054;-78
2022/08/09 06:54:23;;;;;;;4.88;3.75;;;;;;;;;;4996216;28;20465;-79
2022/08/09 06:56:48;;;;;;;6.53;3.97;;;;;;;;;;4997007;28;20039;-81
2022/08/09 06:59:13;;;;;;;5.55;3.72;;;;;;;;;;4993119;28;20042;-79
2022/08/09 07:01:39;;;;;;;6.13;3.35;;;;;;;;;;4994932;28;20516;-78
2022/08/09 07:04:04;;;;;;;9.80;4.60;;;;;;;;;;5010497;28;20042;-79
2022/08/09 07:06:30;;;;;;;5.18;3.85;;;;;;;;;;4978171;28;20037;-79
2022/08/09 07:08:55;;;;;;;8.20;3.63;;;;;;;;;;4995078;28;20022;-79
2022/08/09 07:11:21;;;;;;;5.13;3.25;;;;;;;;;;4994209;28;20030;-77
2022/08/09 07:13:46;;;;;;;7.10;3.90;;;;;;;;;;4995589;28;20128;-80
2022/08/09 07:16:12;;;;;;;5.55;3.70;;;;;;;;;;4994124;28;20034;-79
2022/08/09 07:18:37;;;;;;;6.20;3.70;;;;;;;;;;4994177;28;20396;-79
2022/08/09 07:21:02;;;;;;;4.20;3.30;;;;;;;;;;4993149;28;20429;-79
2022/08/09 07:23:28;;;;;;;5.72;3.30;;;;;;;;;;4995119;28;20092;-80
2022/08/09 07:25:53;;;;;;;4.07;2.97;;;;;;;;;;4995655;28;20034;-78
2022/08/09 07:28:19;;;;;;;5.95;3.17;;;;;;;;;;4993779;28;20121;-80
2022/08/09 07:30:45;;;;;;;6.43;3.20;;;;;;;;;;4993039;28;20022;-80
2022/08/09 07:33:10;;;;;;;3.65;3.00;;;;;;;;;;4993779;28;20034;-78
2022/08/09 07:35:36;;;;;;;5.07;3.10;;;;;;;;;;4994799;28;20038;-79
2022/08/09 07:38:01;;;;;;;5.15;3.20;;;;;;;;;;4992674;28;20433;-78
2022/08/09 07:40:27;;;;;;;3.45;2.85;;;;;;;;;;5002011;28;20105;-79
2022/08/09 07:42:58;;;;;;;3.85;2.60;;;;;;;;;;4998021;28;20591;-81
2022/08/09 07:45:24;;;;;;;5.20;2.88;;;;;;;;;;4993805;28;20057;-80
2022/08/09 07:47:51;;;;;;;4.10;2.50;;;;;;;;;;4976467;28;20030;-79
2022/08/09 07:50:17;;;;;;;3.47;2.50;;;;;;;;;;4961813;28;20391;-80
2022/08/09 07:52:42;;;;;;;3.08;2.47;;;;;;;;;;4995309;28;20026;-82
2022/08/09 07:55:08;;;;;;;4.05;2.63;;;;;;;;;;4977679;28;20034;-85
2022/08/09 07:57:51;;;;;;;7.35;2.90;;;;;;;;;;5065202;28;20823;-81
2022/08/09 08:00:17;;;;;;;4.43;2.53;;;;;;;;;;5051860;28;20029;-80
2022/08/09 08:02:43;;;;;;;3.40;2.53;;;;;;;;;;5048425;28;20026;-81
2022/08/09 08:05:08;;;;;;;6.85;2.83;;;;;;;;;;5052349;28;20060;-81
2022/08/09 08:07:34;;;;;;;5.25;2.75;;;;;;;;;;5035904;28;20124;-82
2022/08/09 08:09:59;;;;;;;3.70;2.53;;;;;;;;;;5052928;28;20029;-81
2022/08/09 08:12:25;;;;;;;4.75;2.60;;;;;;;;;;5042590;28;20036;-80
2022/08/09 08:14:51;;;;;;;3.45;2.58;;;;;;;;;;5076832;28;20044;-84
2022/08/09 08:17:17;;;;;;;5.32;2.80;;;;;;;;;;5034175;28;20037;-83
2022/08/09 08:19:42;;;;;;;3.63;2.60;;;;;;;;;;5056488;28;20045;-80
2022/08/09 08:22:08;;;;;;;4.68;3.20;;;;;;;;;;5059231;28;20035;-86
2022/08/09 08:24:33;;;;;;;7.07;3.22;;;;;;;;;;5043222;28;20029;-80
2022/08/09 08:26:59;;;;;;;6.43;3.22;;;;;;;;;;5033655;28;20124;-78
2022/08/09 08:29:24;;;;;;;4.05;2.70;;;;;;;;;;5052241;28;20029;-83
2022/08/09 08:31:49;;;;;;;7.10;3.10;;;;;;;;;;5054413;28;20086;-78
2022/08/09 08:34:15;;;;;;;4.63;3.17;;;;;;;;;;5052157;28;20029;-81
2022/08/09 08:36:40;;;;;;;5.35;3.55;;;;;;;;;;5030466;28;20042;-80
2022/08/09 08:39:06;;;;;;;6.72;3.30;;;;;;;;;;5045481;28;20075;-79
2022/08/09 08:41:31;;;;;;;4.22;2.88;;;;;;;;;;5052731;28;20114;-80
2022/08/09 08:43:57;;;;;;;7.05;3.53;;;;;;;;;;5051570;28;20040;-83
2022/08/09 08:46:24;;;;;;;4.90;3.50;;;;;;;;;;5038462;28;20117;-81
2022/08/09 08:48:49;;;;;;;3.92;3.20;;;;;;;;;;5045642;28;20484;-80
2022/08/09 08:51:16;;;;;;;7.30;3.38;;;;;;;;;;5050432;28;20121;-84
2022/08/09 08:53:42;;;;;;;4.78;3.10;;;;;;;;;;5018439;28;20029;-83
2022/08/09 08:56:08;;;;;;;3.45;2.83;;;;;;;;;;5033313;28;20056;-81
2022/08/09 08:58:34;;;;;;;6.60;3.50;;;;;;;;;;5050919;28;20119;-84
2022/08/09 09:01:01;;;;;;;7.32;3.15;;;;;;;;;;5068590;28;20037;-81
2022/08/09 09:03:28;;;;;;;7.20;3.17;;;;;;;;;;5050815;28;20025;-80
2022/08/09 09:05:55;;;;;;;5.35;3.05;;;;;;;;;;5031137;28;20053;-78
2022/08/09 09:08:20;;;;;;;4.30;3.20;;;;;;;;;;5043139;28;20026;-81
2022/08/09 09:10:46;;;;;;;5.03;3.00;;;;;;;;;;5019090;28;20030;-79
2022/08/09 09:13:11;;;;;;;4.78;2.80;;;;;;;;;;5003598;28;20531;-82
2022/08/09 09:15:37;;;;;;;5.20;3.10;;;;;;;;;;5020284;28;20111;-82
2022/08/09 09:18:02;;;;;;;5.88;2.72;;;;;;;;;;5035928;28;20160;-80
2022/08/09 09:20:28;;;;;;;4.78;2.90;;;;;;;;;;5035486;28;20029;-79
2022/08/09 09:22:58;;;;;;;4.50;2.65;;;;;;;;;;5019050;28;20431;-80
2022/08/09 09:25:31;;;;;;;4.85;2.78;;;;;;;;;;5019389;28;20038;-81
2022/08/09 09:27:57;;;;;;;4.28;2.75;;;;;;;;;;5036030;28;20037;-80
2022/08/09 09:30:22;;;;;;;4.88;2.92;;;;;;;;;;5041238;28;20024;-80
2022/08/09 09:32:59;;;;;;;7.35;2.65;;;;;;;;;;5043119;28;20488;-81
2022/08/09 09:35:24;;;;;;;4.88;3.08;;;;;;;;;;5036410;28;20037;-79
2022/08/09 09:37:52;;;;;;;5.45;3.10;;;;;;;;;;5042167;28;20393;-80
2022/08/09 09:40:18;;;;;;;4.88;3.10;;;;;;;;;;5020182;28;20076;-80
2022/08/09 09:42:43;;;;;;;5.20;2.70;;;;;;;;;;5019818;28;20036;-81
2022/08/09 09:45:09;;;;;;;3.92;2.97;;;;;;;;;;5015750;28;20493;-80
2022/08/09 09:47:34;;;;;;;4.63;2.70;;;;;;;;;;5031578;28;20029;-81
2022/08/09 09:50:01;;;;;;;6.13;2.95;;;;;;;;;;5015417;28;20404;-81
2022/08/09 09:52:27;;;;;;;3.15;2.40;;;;;;;;;;5019186;28;20164;-82
2022/08/09 09:54:59;;;;;;;4.18;2.70;;;;;;;;;;5036811;28;20507;-82
2022/08/09 09:57:24;;;;;;;5.05;2.53;;;;;;;;;;5068850;28;20504;-83
2022/08/09 09:59:50;;;;;;;4.50;2.50;;;;;;;;;;5036173;28;20025;-81
2022/08/09 10:02:17;;;;;;;5.72;2.60;;;;;;;;;;5034553;28;20116;-80
2022/08/09 10:04:43;;;;;;;5.03;2.60;;;;;;;;;;5034497;28;20025;-81
2022/08/09 10:07:21;;;;;;;4.78;2.50;;;;;;;;;;5036866;28;20385;-81
2022/08/09 10:09:48;;;;;;;5.13;2.28;;;;;;;;;;5036046;28;20046;-79
2022/08/09 10:12:21;;;;;;;5.60;2.42;;;;;;;;;;5018763;28;20030;-80
2022/08/09 10:14:47;;;;;;;5.63;2.00;;;;;;;;;;5029245;28;20033;-81
2022/08/09 10:17:12;;;;;;;5.13;2.35;;;;;;;;;;5019392;28;20155;-79
2022/08/09 10:19:38;;;;;;;3.55;2.05;;;;;;;;;;5034530;28;20033;-80
2022/08/09 10:22:03;;;;;;;4.53;2.63;;;;;;;;;;5050990;28;20030;-80
2022/08/09 10:24:29;;;;;;;3.35;2.40;;;;;;;;;;5028024;28;20037;-80
2022/08/09 10:26:55;;;;;;;4.30;2.20;;;;;;;;;;5034998;28;20116;-79
2022/08/09 10:29:21;;;;;;;3.55;2.05;;;;;;;;;;5002795;28;20037;-79
2022/08/09 10:31:46;;;;;;;9.60;3.10;;;;;;;;;;5033839;28;20396;-79
2022/08/09 10:34:12;;;;;;;5.38;2.17;;;;;;;;;;5033772;28;20033;-80
2022/08/09 10:36:38;;;;;;;5.43;2.67;;;;;;;;;;5033230;28;20057;-80
2022/08/09 10:39:04;;;;;;;3.30;2.70;;;;;;;;;;5033186;28;20037;-79
2022/08/09 10:41:29;;;;;;;4.88;2.70;;;;;;;;;;5035208;28;20024;-81
2022/08/09 10:43:54;;;;;;;7.53;2.67;;;;;;;;;;5032819;28;20033;-79
2022/08/09 10:46:20;;;;;;;4.72;2.40;;;;;;;;;;5038986;28;20021;-82
2022/08/09 10:48:48;;;;;;;6.43;2.28;;;;;;;;;;5034201;28;20041;-80
2022/08/09 10:51:17;;;;;;;5.00;2.70;;;;;;;;;;5035511;28;20038;-78
2022/08/09 10:54:01;;;;;;;4.38;2.60;;;;;;;;;;5016570;28;20405;-80
2022/08/09 10:56:32;;;;;;;5.57;2.70;;;;;;;;;;5067451;28;20050;-82
2022/08/09 10:58:57;;;;;;;5.10;2.88;;;;;;;;;;5034304;28;20034;-80
2022/08/09 11:01:32;;;;;;;4.38;2.60;;;;;;;;;;5033448;28;20042;-81
2022/08/09 11:04:07;;;;;;;4.32;2.50;;;;;;;;;;5035087;28;20096;-84
2022/08/09 11:06:34;;;;;;;4.43;2.53;;;;;;;;;;5035575;28;20033;-80
2022/08/09 11:09:00;;;;;;;4.57;2.97;;;;;;;;;;5034756;28;20496;-81
2022/08/09 11:11:26;;;;;;;4.53;2.42;;;;;;;;;;5021208;28;20041;-83
2022/08/09 11:14:23;;;;;;;5.10;2.80;;;;;;;;;;5045575;28;20060;-82
2022/08/09 11:16:49;;;;;;;4.28;2.78;;;;;;;;;;5066623;28;20037;-80
2022/08/09 11:19:14;;;;;;;4.45;3.20;;;;;;;;;;5034860;28;20040;-78
2022/08/09 11:21:53;;;;;;;4.80;2.58;;;;;;;;;;5035229;28;20072;-81
2022/08/09 11:24:20;;;;;;;7.07;2.60;;;;;;;;;;5036873;28;20048;-81
2022/08/09 11:26:47;;;;;;;7.85;4.07;;;;;;;;;;5031438;28;20029;-80
2022/08/09 11:29:31;;;;;;;3.80;2.90;;;;;;;;;;5036722;28;20095;-81
2022/08/09 11:31:57;;;;;;;7.30;2.90;;;;;;;;;;5035305;28;20044;-81
2022/08/09 11:34:32;;;;;;;3.92;2.30;;;;;;;;;;5047239;28;20025;-83
2022/08/09 11:36:58;;;;;;;3.85;1.98;;;;;;;;;;5014440;28;20049;-81
2022/08/09 11:39:23;;;;;;;6.10;2.33;;;;;;;;;;5029202;28;20033;-80
2022/08/09 11:41:49;;;;;;;8.27;2.00;;;;;;;;;;5036152;28;20037;-80
2022/08/09 11:44:15;;;;;;;4.07;2.30;;;;;;;;;;5014718;28;20434;-82
2022/08/09 11:46:54;;;;;;;3.53;2.10;;;;;;;;;;5001291;28;20072;-80
2022/08/09 11:49:39;;;;;;;3.72;1.98;;;;;;;;;;5035052;28;20074;-82
2022/08/09 11:52:05;;;;;;;3.70;1.87;;;;;;;;;;5016279;28;20048;-79
2022/08/09 11:54:30;;;;;;;4.22;2.17;;;;;;;;;;5032975;28;20277;-80
2022/08/09 11:57:14;;;;;;;3.92;1.92;;;;;;;;;;5029986;28;20058;-84
2022/08/09 11:59:40;;;;;;;3.13;1.55;;;;;;;;;;5060258;28;20034;-80
2022/08/09 12:02:07;;;;;;;3.50;1.70;;;;;;;;;;5044868;28;20472;-81
2022/08/09 12:04:33;;;;;;;3.75;1.80;;;;;;;;;;5025235;28;20029;-80
2022/08/09 12:06:58;;;;;;;6.28;1.80;;;;;;;;;;5016091;28;20036;-79
2022/08/09 12:09:25;;;;;;;3.13;1.58;;;;;;;;;;5032446;28;20033;-79
2022/08/09 12:11:57;;;;;;;3.63;1.60;;;;;;;;;;5017099;28;20052;-80
2022/08/09 12:14:27;;;;;;;3.40;1.50;;;;;;;;;;5016911;28;20037;-80
2022/08/09 12:16:53;;;;;;;2.40;1.40;;;;;;;;;;5015557;28;20156;-79
2022/08/09 12:19:21;;;;;;;3.35;1.60;;;;;;;;;;5033512;28;20045;-80
2022/08/09 12:21:50;;;;;;;4.63;1.70;;;;;;;;;;5016726;28;20037;-81
2022/08/09 12:24:18;;;;;;;4.55;1.90;;;;;;;;;;5017197;28;20431;-79
2022/08/09 12:26:46;;;;;;;4.53;1.75;;;;;;;;;;5065766;28;20080;-79
2022/08/09 12:29:15;;;;;;;3.25;1.95;;;;;;;;;;5033032;28;20484;-83
2022/08/09 12:31:41;;;;;;;3.83;1.65;;;;;;;;;;5028549;28;20037;-80
2022/08/09 12:34:06;;;;;;;4.57;1.50;;;;;;;;;;5027052;28;20552;-80
2022/08/09 12:36:33;;;;;;;4.07;2.10;;;;;;;;;;5032802;28;20464;-80
2022/08/09 12:38:58;;;;;;;4.88;1.70;;;;;;;;;;5015942;28;20059;-80
2022/08/09 12:41:25;;;;;;;4.47;1.60;;;;;;;;;;5035433;28;20037;-82
2022/08/09 12:43:50;;;;;;;3.75;1.60;;;;;;;;;;5021552;28;20037;-81
2022/08/09 12:46:16;;;;;;;4.78;1.83;;;;;;;;;;5037058;28;20033;-80
2022/08/09 12:48:41;;;;;;;3.97;1.80;;;;;;;;;;5035869;28;20025;-81
2022/08/09 12:51:07;;;;;;;4.10;1.98;;;;;;;;;;5037425;28;20037;-78
2022/08/09 12:53:36;;;;;;;3.30;1.90;;;;;;;;;;5016016;28;20538;-79
2022/08/09 12:56:05;;;;;;;4.10;1.92;;;;;;;;;;5036073;28;20049;-81
2022/08/09 12:58:31;;;;;;;7.90;2.30;;;;;;;;;;5037090;28;20041;-80
2022/08/09 13:00:57;;;;;;;7.70;3.10;;;;;;;;;;5036497;28;20125;-81
2022/08/09 13:03:30;;;;;;;3.53;1.85;;;;;;;;;;5036912;28;20105;-81
2022/08/09 13:05:55;;;;;;;3.25;2.00;;;;;;;;;;5036576;28;20508;-81
2022/08/09 13:08:22;;;;;;;4.72;2.30;;;;;;;;;;5017393;28;20033;-81
2022/08/09 13:10:52;;;;;;;4.38;1.83;;;;;;;;;;5037390;28;20037;-80
2022/08/09 13:13:33;;;;;;;3.42;1.85;;;;;;;;;;5035439;28;20037;-80
2022/08/09 13:16:01;;;;;;;3.28;1.80;;;;;;;;;;5039483;28;20037;-84
2022/08/09 13:18:27;;;;;;;4.32;2.13;;;;;;;;;;5036420;28;20021;-81
2022/08/09 13:20:54;;;;;;;3.95;2.20;;;;;;;;;;5036242;28;20037;-80
2022/08/09 13:23:19;;;;;;;4.85;2.63;;;;;;;;;;5035219;28;20108;-79
2022/08/09 13:25:46;;;;;;;6.95;2.30;;;;;;;;;;5035860;28;20139;-81
2022/08/09 13:28:15;;;;;;;6.45;2.20;;;;;;;;;;5036377;28;20021;-79
2022/08/09 13:30:41;;;;;;;6.13;2.50;;;;;;;;;;5028645;28;20153;-80
2022/08/09 13:33:06;;;;;;;5.38;2.40;;;;;;;;;;5036882;28;20021;-83
2022/08/09 13:35:32;;;;;;;3.85;2.17;;;;;;;;;;5038106;28;20112;-80
2022/08/09 13:37:59;;;;;;;3.95;2.25;;;;;;;;;;5018342;28;20040;-80
2022/08/09 13:40:24;;;;;;;4.80;2.30;;;;;;;;;;5037004;28;20141;-80
2022/08/09 13:42:50;;;;;;;5.90;2.38;;;;;;;;;;5029464;28;20036;-80
2022/08/09 13:45:15;;;;;;;6.75;2.60;;;;;;;;;;5036729;28;20061;-84
2022/08/09 13:47:41;;;;;;;3.42;2.10;;;;;;;;;;5036532;28;20017;-79
2022/08/09 13:50:07;;;;;;;4.72;2.20;;;;;;;;;;5035634;28;20041;-80
2022/08/09 13:52:33;;;;;;;4.65;2.20;;;;;;;;;;5036172;28;20028;-80
2022/08/09 13:54:59;;;;;;;3.45;1.70;;;;;;;;;;5035305;28;20120;-79
2022/08/09 13:57:25;;;;;;;4.70;2.25;;;;;;;;;;5037140;28;20413;-81
2022/08/09 13:59:51;;;;;;;5.38;2.22;;;;;;;;;;5029309;28;20033;-80
2022/08/09 14:02:16;;;;;;;4.50;2.13;;;;;;;;;;5034833;28;20080;-83
2022/08/09 14:04:42;;;;;;;4.40;2.15;;;;;;;;;;5019673;28;20041;-79
2022/08/09 14:07:07;;;;;;;4.75;1.88;;;;;;;;;;5037353;28;20033;-80
2022/08/09 14:09:33;;;;;;;3.50;1.88;;;;;;;;;;5035877;28;20029;-82
2022/08/09 14:11:59;;;;;;;6.35;1.95;;;;;;;;;;5036804;28;20079;-82
2022/08/09 14:14:24;;;;;;;4.03;1.85;;;;;;;;;;5037174;28;20508;-81
2022/08/09 14:16:50;;;;;;;4.07;1.88;;;;;;;;;;5034994;28;20052;-81
2022/08/09 14:19:16;;;;;;;3.38;1.80;;;;;;;;;;5016868;28;20044;-83
2022/08/09 14:21:41;;;;;;;4.22;1.95;;;;;;;;;;5032662;28;20480;-79
2022/08/09 14:24:07;;;;;;;5.95;2.17;;;;;;;;;;5035030;28;20132;-81
2022/08/09 14:26:33;;;;;;;4.00;2.30;;;;;;;;;;5018887;28;20121;-80
2022/08/09 14:28:59;;;;;;;7.35;2.45;;;;;;;;;;5018331;28;20555;-81
2022/08/09 14:31:24;;;;;;;5.22;2.17;;;;;;;;;;5017616;28;20107;-81
2022/08/09 14:34:15;;;;;;;5.60;2.00;;;;;;;;;;5035341;28;20044;-80
2022/08/09 14:36:40;;;;;;;6.55;2.17;;;;;;;;;;5037821;28;20051;-80
2022/08/09 14:39:06;;;;;;;3.95;1.90;;;;;;;;;;5027722;28;20396;-81
2022/08/09 14:41:31;;;;;;;4.28;2.05;;;;;;;;;;5035237;28;20120;-77